createdAt,value
2023-04-26T00:00:11.952Z,0.00
2023-04-26T00:01:11.932Z,0.00
2023-04-26T00:02:11.579Z,0.00
2023-04-26T00:03:11.516Z,0.00
2023-04-26T00:04:11.591Z,0.00
2023-04-26T00:05:11.815Z,0.00
2023-04-26T00:06:11.578Z,0.00
2023-04-26T00:07:11.648Z,0.00
2023-04-26T00:08:11.600Z,0.00
2023-04-26T00:09:11.741Z,0.00
2023-04-26T00:10:11.557Z,0.00
2023-04-26T00:11:11.859Z,0.00
2023-04-26T00:12:11.390Z,0.00
2023-04-26T00:13:11.821Z,0.00
2023-04-26T00:14:11.366Z,0.00
2023-04-26T00:15:11.384Z,0.00
2023-04-26T00:16:11.428Z,0.00
2023-04-26T00:17:11.348Z,0.00
2023-04-26T00:18:11.385Z,0.00
2023-04-26T00:19:11.348Z,0.00
2023-04-26T00:20:11.362Z,0.00
2023-04-26T00:21:11.308Z,0.00
2023-04-26T00:22:11.348Z,0.00
2023-04-26T00:23:11.324Z,0.00
2023-04-26T00:24:11.341Z,0.00
2023-04-26T00:25:11.370Z,0.00
2023-04-26T00:26:11.374Z,0.00
2023-04-26T00:27:11.406Z,0.00
2023-04-26T00:28:11.390Z,0.00
2023-04-26T00:29:11.404Z,0.00
2023-04-26T00:30:11.441Z,0.00
2023-04-26T00:31:11.449Z,0.00
2023-04-26T00:32:11.281Z,0.00
2023-04-26T00:33:11.233Z,0.00
2023-04-26T00:34:11.231Z,0.00
2023-04-26T00:35:11.284Z,0.00
2023-04-26T00:36:11.323Z,0.00
2023-04-26T00:37:11.263Z,0.00
2023-04-26T00:38:11.430Z,0.00
2023-04-26T00:39:11.505Z,0.00
2023-04-26T00:40:11.459Z,0.00
2023-04-26T00:41:12.637Z,0.00
2023-04-26T00:42:11.592Z,0.00
2023-04-26T00:43:11.585Z,0.00
2023-04-26T00:44:11.269Z,0.00
2023-04-26T00:45:11.615Z,0.00
2023-04-26T00:46:11.200Z,0.00
2023-04-26T00:47:11.640Z,0.00
2023-04-26T00:48:11.500Z,0.00
2023-04-26T00:49:11.155Z,0.00
2023-04-26T00:50:11.254Z,0.00
2023-04-26T00:51:11.499Z,0.00
2023-04-26T00:52:11.510Z,0.00
2023-04-26T00:53:11.491Z,0.00
2023-04-26T00:54:11.179Z,0.00
2023-04-26T00:55:11.173Z,0.00
2023-04-26T00:56:12.561Z,0.00
2023-04-26T00:57:11.525Z,0.00
2023-04-26T00:58:11.551Z,0.00
2023-04-26T00:59:11.578Z,0.00
2023-04-26T01:00:11.571Z,0.00
2023-04-26T01:01:11.111Z,0.00
2023-04-26T01:02:11.193Z,0.00
2023-04-26T01:03:11.250Z,0.00
2023-04-26T01:04:11.380Z,0.00
2023-04-26T01:05:11.278Z,0.00
2023-04-26T01:06:11.234Z,0.00
2023-04-26T01:07:11.380Z,0.00
2023-04-26T01:08:11.440Z,0.00
2023-04-26T01:09:11.003Z,0.00
2023-04-26T01:10:11.011Z,0.00
2023-04-26T01:11:11.078Z,0.00
2023-04-26T01:12:11.024Z,0.00
2023-04-26T01:13:11.025Z,0.00
2023-04-26T01:14:11.043Z,0.00
2023-04-26T01:15:11.047Z,0.00
2023-04-26T01:16:11.072Z,0.00
2023-04-26T01:17:11.153Z,0.00
2023-04-26T01:18:11.085Z,0.00
2023-04-26T01:19:11.121Z,0.00
2023-04-26T01:20:11.110Z,0.00
2023-04-26T01:21:11.122Z,0.00
2023-04-26T01:22:11.137Z,0.00
2023-04-26T01:23:11.148Z,0.00
2023-04-26T01:24:11.024Z,0.00
2023-04-26T01:25:11.177Z,0.00
2023-04-26T01:26:11.038Z,0.00
2023-04-26T01:27:11.203Z,0.00
2023-04-26T01:28:11.218Z,0.00
2023-04-26T01:29:10.860Z,0.00
2023-04-26T01:30:11.241Z,0.00
2023-04-26T01:31:10.979Z,0.00
2023-04-26T01:32:11.140Z,0.00
2023-04-26T01:33:10.871Z,0.00
2023-04-26T01:34:10.909Z,0.00
2023-04-26T01:35:10.965Z,0.00
2023-04-26T01:36:10.831Z,0.00
2023-04-26T01:37:10.853Z,0.00
2023-04-26T01:38:10.839Z,0.00
2023-04-26T01:39:11.264Z,0.00
2023-04-26T01:40:11.295Z,0.00
2023-04-26T01:41:11.372Z,0.00
2023-04-26T01:42:10.956Z,0.00
2023-04-26T01:43:11.415Z,0.00
2023-04-26T01:44:10.885Z,0.00
2023-04-26T01:45:11.439Z,0.00
2023-04-26T01:46:11.197Z,0.00
2023-04-26T01:47:11.100Z,0.00
2023-04-26T01:48:11.301Z,0.00
2023-04-26T01:49:11.488Z,0.00
2023-04-26T01:50:11.482Z,0.00
2023-04-26T01:51:11.177Z,0.00
2023-04-26T01:52:11.441Z,0.00
2023-04-26T01:53:11.535Z,0.00
2023-04-26T01:54:11.565Z,0.00
2023-04-26T01:55:11.031Z,0.00
2023-04-26T01:56:10.750Z,0.00
2023-04-26T01:57:11.525Z,0.00
2023-04-26T01:58:11.606Z,0.00
2023-04-26T01:59:10.873Z,0.00
2023-04-26T02:00:11.518Z,0.00
2023-04-26T02:01:10.813Z,0.00
2023-04-26T02:02:10.764Z,0.00
2023-04-26T02:03:10.801Z,0.00
2023-04-26T02:04:10.819Z,0.00
2023-04-26T02:05:10.920Z,0.00
2023-04-26T02:06:10.724Z,0.00
2023-04-26T02:07:10.694Z,0.00
2023-04-26T02:08:10.731Z,0.00
2023-04-26T02:09:10.627Z,0.00
2023-04-26T02:10:10.866Z,0.00
2023-04-26T02:11:10.877Z,0.00
2023-04-26T02:12:10.653Z,0.00
2023-04-26T02:13:10.956Z,0.00
2023-04-26T02:14:10.590Z,0.00
2023-04-26T02:15:11.088Z,0.00
2023-04-26T02:16:10.803Z,0.00
2023-04-26T02:17:11.178Z,0.00
2023-04-26T02:18:11.294Z,0.00
2023-04-26T02:19:10.667Z,0.00
2023-04-26T02:20:11.313Z,0.00
2023-04-26T02:21:11.357Z,0.00
2023-04-26T02:22:11.249Z,0.00
2023-04-26T02:23:10.519Z,0.00
2023-04-26T02:24:10.529Z,0.00
2023-04-26T02:25:11.403Z,0.00
2023-04-26T02:26:10.732Z,0.00
2023-04-26T02:27:10.562Z,0.00
2023-04-26T02:28:10.556Z,0.00
2023-04-26T02:29:10.493Z,0.00
2023-04-26T02:30:10.516Z,0.00
2023-04-26T02:31:10.571Z,0.00
2023-04-26T02:32:10.520Z,0.00
2023-04-26T02:33:10.526Z,0.00
2023-04-26T02:34:10.552Z,0.00
2023-04-26T02:35:10.554Z,0.00
2023-04-26T02:36:10.569Z,0.00
2023-04-26T02:37:10.593Z,0.00
2023-04-26T02:38:10.600Z,0.00
2023-04-26T02:39:10.608Z,0.00
2023-04-26T02:40:10.441Z,0.00
2023-04-26T02:41:10.626Z,0.00
2023-04-26T02:42:10.451Z,0.00
2023-04-26T02:43:10.500Z,0.00
2023-04-26T02:44:10.671Z,0.00
2023-04-26T02:45:10.556Z,0.00
2023-04-26T02:46:10.755Z,0.00
2023-04-26T02:47:10.587Z,0.00
2023-04-26T02:48:10.482Z,0.00
2023-04-26T02:49:10.733Z,0.00
2023-04-26T02:50:10.505Z,0.00
2023-04-26T02:51:10.758Z,0.00
2023-04-26T02:52:10.605Z,0.00
2023-04-26T02:53:10.794Z,0.00
2023-04-26T02:54:10.803Z,0.00
2023-04-26T02:55:10.812Z,0.00
2023-04-26T02:56:10.732Z,0.00
2023-04-26T02:57:10.835Z,0.00
2023-04-26T02:58:10.845Z,0.00
2023-04-26T02:59:10.348Z,0.00
2023-04-26T03:00:10.318Z,0.00
2023-04-26T03:01:10.429Z,0.00
2023-04-26T03:02:10.331Z,0.00
2023-04-26T03:03:10.551Z,0.00
2023-04-26T03:04:10.542Z,0.00
2023-04-26T03:05:10.312Z,0.00
2023-04-26T03:06:10.451Z,0.00
2023-04-26T03:07:10.475Z,0.00
2023-04-26T03:08:10.466Z,0.00
2023-04-26T03:09:10.685Z,0.00
2023-04-26T03:10:10.750Z,0.00
2023-04-26T03:11:10.789Z,0.00
2023-04-26T03:12:10.854Z,0.00
2023-04-26T03:13:10.286Z,0.00
2023-04-26T03:14:10.632Z,0.00
2023-04-26T03:15:11.109Z,0.00
2023-04-26T03:16:10.535Z,0.00
2023-04-26T03:17:10.260Z,0.00
2023-04-26T03:18:10.303Z,0.00
2023-04-26T03:19:10.209Z,0.00
2023-04-26T03:20:11.111Z,0.00
2023-04-26T03:21:10.969Z,0.00
2023-04-26T03:22:10.290Z,0.00
2023-04-26T03:23:10.175Z,0.00
2023-04-26T03:24:10.201Z,0.00
2023-04-26T03:25:10.380Z,0.00
2023-04-26T03:26:10.581Z,0.00
2023-04-26T03:27:10.528Z,0.00
2023-04-26T03:28:10.829Z,0.00
2023-04-26T03:29:10.130Z,0.00
2023-04-26T03:30:10.108Z,0.00
2023-04-26T03:31:10.179Z,0.00
2023-04-26T03:32:10.280Z,0.00
2023-04-26T03:33:10.349Z,0.00
2023-04-26T03:34:10.411Z,0.00
2023-04-26T03:35:10.582Z,0.00
2023-04-26T03:36:10.271Z,0.00
2023-04-26T03:37:10.629Z,0.00
2023-04-26T03:38:10.677Z,4.00
2023-04-26T03:39:10.766Z,4.00
2023-04-26T03:40:10.346Z,1.00
2023-04-26T03:41:10.424Z,0.00
2023-04-26T03:42:10.938Z,1.00
2023-04-26T03:43:11.009Z,1.00
2023-04-26T03:44:10.760Z,5.00
2023-04-26T03:45:10.894Z,1.00
2023-04-26T03:46:10.613Z,3.00
2023-04-26T03:47:10.048Z,3.00
2023-04-26T03:48:10.173Z,6.00
2023-04-26T03:49:10.379Z,6.00
2023-04-26T03:50:10.078Z,31.00
2023-04-26T03:51:10.073Z,27.00
2023-04-26T03:52:09.985Z,23.00
2023-04-26T03:53:09.958Z,28.00
2023-04-26T03:54:09.966Z,29.00
2023-04-26T03:55:09.986Z,25.00
2023-04-26T03:56:09.970Z,47.00
2023-04-26T03:57:09.990Z,51.00
2023-04-26T03:58:09.930Z,61.00
2023-04-26T03:59:09.982Z,79.00
2023-04-26T04:00:10.045Z,71.00
2023-04-26T04:01:10.085Z,89.00
2023-04-26T04:02:10.105Z,98.00
2023-04-26T04:03:10.310Z,112.00
2023-04-26T04:04:10.205Z,126.00
2023-04-26T04:05:09.991Z,144.00
2023-04-26T04:06:10.104Z,154.00
2023-04-26T04:07:10.119Z,164.00
2023-04-26T04:08:10.124Z,181.00
2023-04-26T04:09:10.142Z,221.00
2023-04-26T04:10:10.151Z,244.00
2023-04-26T04:11:09.985Z,263.00
2023-04-26T04:12:10.183Z,286.00
2023-04-26T04:13:10.193Z,313.00
2023-04-26T04:14:10.137Z,341.00
2023-04-26T04:15:09.823Z,364.00
2023-04-26T04:16:09.958Z,396.00
2023-04-26T04:17:10.254Z,437.00
2023-04-26T04:18:10.322Z,464.00
2023-04-26T04:19:10.276Z,496.00
2023-04-26T04:20:10.291Z,550.00
2023-04-26T04:21:10.304Z,574.00
2023-04-26T04:22:10.308Z,609.00
2023-04-26T04:23:10.183Z,659.00
2023-04-26T04:24:10.335Z,687.00
2023-04-26T04:25:09.781Z,736.00
2023-04-26T04:26:10.368Z,789.00
2023-04-26T04:27:10.179Z,826.00
2023-04-26T04:28:09.720Z,876.00
2023-04-26T04:29:09.706Z,904.00
2023-04-26T04:30:09.744Z,958.00
2023-04-26T04:31:09.739Z,988.00
2023-04-26T04:32:09.841Z,1037.00
2023-04-26T04:33:09.774Z,1100.00
2023-04-26T04:34:09.994Z,1117.00
2023-04-26T04:35:09.920Z,1157.00
2023-04-26T04:36:09.752Z,1208.00
2023-04-26T04:37:09.702Z,1249.00
2023-04-26T04:38:09.656Z,1293.00
2023-04-26T04:39:09.669Z,1353.00
2023-04-26T04:40:11.533Z,1435.00
2023-04-26T04:41:09.693Z,1488.00
2023-04-26T04:42:09.713Z,1503.00
2023-04-26T04:43:09.704Z,1539.00
2023-04-26T04:44:09.615Z,1581.00
2023-04-26T04:45:10.019Z,1627.00
2023-04-26T04:46:11.350Z,1686.00
2023-04-26T04:47:09.621Z,1712.00
2023-04-26T04:48:09.852Z,1755.00
2023-04-26T04:49:09.839Z,1816.00
2023-04-26T04:50:09.730Z,1861.00
2023-04-26T04:51:09.834Z,1919.00
2023-04-26T04:52:09.648Z,1956.00
2023-04-26T04:53:09.849Z,1998.00
2023-04-26T04:54:09.863Z,2045.00
2023-04-26T04:55:10.056Z,2079.00
2023-04-26T04:56:09.886Z,2125.00
2023-04-26T04:57:09.564Z,2172.00
2023-04-26T04:58:09.599Z,2210.00
2023-04-26T04:59:09.529Z,2243.00
2023-04-26T05:00:09.640Z,2295.00
2023-04-26T05:01:09.797Z,2325.00
2023-04-26T05:02:09.917Z,2363.00
2023-04-26T05:03:09.639Z,2390.00
2023-04-26T05:04:09.616Z,2438.00
2023-04-26T05:05:10.350Z,2553.00
2023-04-26T05:06:10.018Z,2536.00
2023-04-26T05:07:09.487Z,2807.00
2023-04-26T05:08:10.048Z,2350.00
2023-04-26T05:09:09.850Z,2649.00
2023-04-26T05:10:10.068Z,2684.00
2023-04-26T05:11:09.536Z,2726.00
2023-04-26T05:12:09.721Z,2760.00
2023-04-26T05:13:09.614Z,2792.00
2023-04-26T05:14:09.904Z,2837.00
2023-04-26T05:15:10.205Z,2890.00
2023-04-26T05:16:09.718Z,2917.00
2023-04-26T05:17:09.580Z,3196.00
2023-04-26T05:18:09.927Z,2740.00
2023-04-26T05:19:10.099Z,3016.00
2023-04-26T05:20:10.203Z,3073.00
2023-04-26T05:21:09.818Z,3086.00
2023-04-26T05:22:09.503Z,3115.00
2023-04-26T05:23:09.647Z,3177.00
2023-04-26T05:24:09.592Z,3204.00
2023-04-26T05:25:09.499Z,3220.00
2023-04-26T05:26:09.551Z,3258.00
2023-04-26T05:27:09.379Z,3270.00
2023-04-26T05:28:09.393Z,3321.00
2023-04-26T05:29:09.467Z,3378.00
2023-04-26T05:30:09.336Z,3423.00
2023-04-26T05:31:11.258Z,3419.00
2023-04-26T05:32:11.087Z,3474.00
2023-04-26T05:33:09.392Z,3485.00
2023-04-26T05:34:09.337Z,3521.00
2023-04-26T05:35:09.394Z,3563.00
2023-04-26T05:36:09.421Z,3583.00
2023-04-26T05:37:09.420Z,3612.00
2023-04-26T05:38:09.342Z,3641.00
2023-04-26T05:40:35.301Z,0.00
2023-04-26T05:41:35.383Z,3769.00
2023-04-26T05:42:35.488Z,3786.00
2023-04-26T05:43:35.519Z,3824.00
2023-04-26T05:44:35.531Z,3848.00
2023-04-26T05:45:35.432Z,3904.00
2023-04-26T05:46:35.549Z,3931.00
2023-04-26T05:47:35.461Z,3969.00
2023-04-26T05:48:41.956Z,3963.00
2023-04-26T05:49:40.717Z,3986.00
2023-04-26T05:50:35.163Z,4010.00
2023-04-26T05:51:35.457Z,4030.00
2023-04-26T05:52:35.306Z,4047.00
2023-04-26T05:53:35.640Z,4098.00
2023-04-26T05:54:35.257Z,4133.00
2023-04-26T05:55:35.246Z,4149.00
2023-04-26T05:56:35.262Z,4163.00
2023-04-26T05:57:35.187Z,4215.00
2023-04-26T05:58:35.144Z,4222.00
2023-04-26T05:59:35.231Z,4263.00
2023-04-26T06:00:35.111Z,4308.00
2023-04-26T06:01:35.197Z,4317.00
2023-04-26T06:02:35.633Z,4327.00
2023-04-26T06:03:35.828Z,4350.00
2023-04-26T06:04:35.299Z,4365.00
2023-04-26T06:05:35.182Z,4405.00
2023-04-26T06:06:35.790Z,4436.00
2023-04-26T06:07:35.134Z,4442.00
2023-04-26T06:08:35.327Z,4471.00
2023-04-26T06:09:35.563Z,4520.00
2023-04-26T06:10:35.859Z,4538.00
2023-04-26T06:11:35.875Z,4552.00
2023-04-26T06:12:35.224Z,4577.00
2023-04-26T06:13:35.048Z,4561.00
2023-04-26T06:14:35.513Z,4619.00
2023-04-26T06:15:35.000Z,4614.00
2023-04-26T06:16:35.064Z,4624.00
2023-04-26T06:17:35.016Z,4603.00
2023-04-26T06:18:35.058Z,4646.00
2023-04-26T06:19:35.135Z,4685.00
2023-04-26T06:20:35.067Z,4762.00
2023-04-26T06:21:35.055Z,4912.00
2023-04-26T06:22:35.062Z,5045.00
2023-04-26T06:23:35.079Z,5328.00
2023-04-26T06:24:35.097Z,4918.00
2023-04-26T06:25:34.965Z,5431.00
2023-04-26T06:26:34.958Z,5219.00
2023-04-26T06:27:35.044Z,4739.00
2023-04-26T06:28:34.929Z,6132.00
2023-04-26T06:29:35.215Z,3959.00
2023-04-26T06:30:35.223Z,5149.00
2023-04-26T06:31:35.218Z,5190.00
2023-04-26T06:32:35.224Z,5336.00
2023-04-26T06:33:35.207Z,5058.00
2023-04-26T06:34:35.239Z,5061.00
2023-04-26T06:35:34.911Z,5592.00
2023-04-26T06:36:34.905Z,4684.00
2023-04-26T06:37:35.260Z,4635.00
2023-04-26T06:38:35.292Z,5248.00
2023-04-26T06:39:36.313Z,6201.00
2023-04-26T06:40:34.834Z,5435.00
2023-04-26T06:41:35.106Z,4487.00
2023-04-26T06:42:35.294Z,6184.00
2023-04-26T06:43:35.301Z,4277.00
2023-04-26T06:44:34.820Z,5300.00
2023-04-26T06:45:34.992Z,5324.00
2023-04-26T06:46:35.471Z,6200.00
2023-04-26T06:47:35.389Z,7964.00
2023-04-26T06:48:34.788Z,5921.00
2023-04-26T06:49:34.796Z,6594.00
2023-04-26T06:50:34.792Z,7223.00
2023-04-26T06:51:35.019Z,6715.00
2023-04-26T06:52:35.104Z,7314.00
2023-04-26T06:53:35.294Z,7212.00
2023-04-26T06:54:37.802Z,9050.00
2023-04-26T06:55:34.791Z,8388.00
2023-04-26T06:56:34.972Z,10471.00
2023-04-26T06:57:34.947Z,12229.00
2023-04-26T06:58:34.847Z,9435.00
2023-04-26T06:59:34.702Z,8666.00
2023-04-26T07:00:35.182Z,8478.00
2023-04-26T07:01:35.228Z,8952.00
2023-04-26T07:02:35.409Z,9576.00
2023-04-26T07:03:34.960Z,10305.00
2023-04-26T07:04:35.498Z,10664.00
2023-04-26T07:05:35.410Z,10406.00
2023-04-26T07:06:35.063Z,9920.00
2023-04-26T07:07:34.713Z,9246.00
2023-04-26T07:08:35.608Z,9828.00
2023-04-26T07:09:35.597Z,8859.00
2023-04-26T07:10:35.059Z,8805.00
2023-04-26T07:11:35.213Z,8347.00
2023-04-26T07:12:34.795Z,8226.00
2023-04-26T07:13:34.625Z,7562.00
2023-04-26T07:14:37.138Z,7289.00
2023-04-26T07:15:34.867Z,6081.00
2023-04-26T07:16:35.491Z,8285.00
2023-04-26T07:17:34.636Z,7717.00
2023-04-26T07:18:34.584Z,7728.00
2023-04-26T07:19:34.606Z,7749.00
2023-04-26T07:20:34.649Z,7774.00
2023-04-26T07:21:34.673Z,7450.00
2023-04-26T07:22:34.745Z,6777.00
2023-04-26T07:23:34.607Z,6580.00
2023-04-26T07:24:34.845Z,7595.00
2023-04-26T07:25:34.595Z,8356.00
2023-04-26T07:26:34.640Z,8025.00
2023-04-26T07:27:34.684Z,9636.00
2023-04-26T07:28:34.721Z,9703.00
2023-04-26T07:29:34.804Z,9119.00
2023-04-26T07:30:34.509Z,8074.00
2023-04-26T07:31:34.926Z,10514.00
2023-04-26T07:32:34.614Z,9015.00
2023-04-26T07:33:34.708Z,9046.00
2023-04-26T07:34:34.465Z,9592.00
2023-04-26T07:35:34.463Z,10343.00
2023-04-26T07:36:34.489Z,10603.00
2023-04-26T07:37:34.495Z,9924.00
2023-04-26T07:38:34.500Z,8759.00
2023-04-26T07:39:34.442Z,11188.00
2023-04-26T07:40:34.517Z,9933.00
2023-04-26T07:41:34.532Z,10158.00
2023-04-26T07:42:34.536Z,10681.00
2023-04-26T07:43:34.565Z,10722.00
2023-04-26T07:44:34.620Z,9669.00
2023-04-26T07:45:34.618Z,7700.00
2023-04-26T07:46:34.600Z,9959.00
2023-04-26T07:47:34.638Z,9355.00
2023-04-26T07:48:34.625Z,7770.00
2023-04-26T07:49:34.633Z,7777.00
2023-04-26T07:50:34.514Z,9117.00
2023-04-26T07:51:34.375Z,7336.00
2023-04-26T07:52:34.378Z,7554.00
2023-04-26T07:53:34.346Z,8254.00
2023-04-26T07:54:34.424Z,6643.00
2023-04-26T07:55:34.396Z,9037.00
2023-04-26T07:56:34.418Z,6270.00
2023-04-26T07:57:34.355Z,8231.00
2023-04-26T07:58:34.440Z,9437.00
2023-04-26T07:59:34.735Z,8400.00
2023-04-26T08:00:34.813Z,10585.00
2023-04-26T08:01:34.472Z,10435.00
2023-04-26T08:02:44.497Z,9728.00
2023-04-26T08:03:35.020Z,9895.00
2023-04-26T08:04:34.953Z,9523.00
2023-04-26T08:05:34.547Z,10382.00
2023-04-26T08:06:34.664Z,10045.00
2023-04-26T08:07:34.870Z,12356.00
2023-04-26T08:08:34.874Z,9856.00
2023-04-26T08:09:34.300Z,10723.00
2023-04-26T08:10:34.631Z,9962.00
2023-04-26T08:11:34.460Z,8666.00
2023-04-26T08:12:34.937Z,7562.00
2023-04-26T08:13:34.938Z,8754.00
2023-04-26T08:14:34.509Z,8293.00
2023-04-26T08:15:34.210Z,8404.00
2023-04-26T08:16:34.533Z,12262.00
2023-04-26T08:17:34.716Z,13164.00
2023-04-26T08:18:34.195Z,16447.00
2023-04-26T08:19:34.234Z,17427.00
2023-04-26T08:20:34.152Z,17579.00
2023-04-26T08:21:34.161Z,16813.00
2023-04-26T08:22:34.170Z,12261.00
2023-04-26T08:23:34.212Z,15021.00
2023-04-26T08:24:34.291Z,16744.00
2023-04-26T08:25:34.358Z,16565.00
2023-04-26T08:26:34.430Z,14541.00
2023-04-26T08:27:34.110Z,14313.00
2023-04-26T08:28:34.414Z,14778.00
2023-04-26T08:29:34.241Z,15542.00
2023-04-26T08:30:34.522Z,17638.00
2023-04-26T08:31:34.747Z,17856.00
2023-04-26T08:32:34.527Z,14339.00
2023-04-26T08:33:34.052Z,14192.00
2023-04-26T08:34:34.047Z,11962.00
2023-04-26T08:35:34.946Z,11542.00
2023-04-26T08:36:34.260Z,11190.00
2023-04-26T08:37:34.776Z,11815.00
2023-04-26T08:38:34.524Z,12784.00
2023-04-26T08:39:34.734Z,12877.00
2023-04-26T08:40:34.042Z,13429.00
2023-04-26T08:41:34.476Z,13348.00
2023-04-26T08:42:36.320Z,13363.00
2023-04-26T08:43:34.712Z,13575.00
2023-04-26T08:44:34.816Z,12828.00
2023-04-26T08:45:33.999Z,12230.00
2023-04-26T08:46:34.901Z,12828.00
2023-04-26T08:47:34.380Z,13921.00
2023-04-26T08:48:33.976Z,16899.00
2023-04-26T08:49:33.948Z,18348.00
2023-04-26T08:50:33.986Z,17321.00
2023-04-26T08:51:33.956Z,16699.00
2023-04-26T08:52:34.098Z,16957.00
2023-04-26T08:53:34.134Z,15602.00
2023-04-26T08:54:34.212Z,13853.00
2023-04-26T08:55:34.299Z,11684.00
2023-04-26T08:56:34.338Z,9709.00
2023-04-26T08:57:34.424Z,9025.00
2023-04-26T08:58:33.912Z,9530.00
2023-04-26T08:59:34.015Z,8730.00
2023-04-26T09:00:33.910Z,7117.00
2023-04-26T09:01:33.935Z,6815.00
2023-04-26T09:02:34.034Z,7679.00
2023-04-26T09:03:33.981Z,7474.00
2023-04-26T09:04:34.175Z,6522.00
2023-04-26T09:05:33.851Z,6827.00
2023-04-26T09:06:33.857Z,7203.00
2023-04-26T09:07:33.857Z,7141.00
2023-04-26T09:08:33.824Z,7316.00
2023-04-26T09:09:33.826Z,7308.00
2023-04-26T09:10:33.831Z,5606.00
2023-04-26T09:11:33.890Z,6738.00
2023-04-26T09:12:33.844Z,7205.00
2023-04-26T09:13:33.854Z,8613.00
2023-04-26T09:14:33.869Z,12257.00
2023-04-26T09:15:33.883Z,16016.00
2023-04-26T09:16:33.808Z,18346.00
2023-04-26T09:17:33.785Z,19864.00
2023-04-26T09:18:33.784Z,19121.00
2023-04-26T09:19:33.748Z,17002.00
2023-04-26T09:20:33.787Z,13314.00
2023-04-26T09:21:33.808Z,10498.00
2023-04-26T09:22:33.784Z,8847.00
2023-04-26T09:23:33.945Z,7547.00
2023-04-26T09:24:33.997Z,7542.00
2023-04-26T09:25:34.020Z,8348.00
2023-04-26T09:26:34.027Z,10186.00
2023-04-26T09:27:33.907Z,11455.00
2023-04-26T09:28:33.704Z,11788.00
2023-04-26T09:29:34.109Z,9898.00
2023-04-26T09:30:33.710Z,10523.00
2023-04-26T09:31:34.037Z,13370.00
2023-04-26T09:32:33.831Z,16670.00
2023-04-26T09:33:33.697Z,19257.00
2023-04-26T09:34:33.893Z,19773.00
2023-04-26T09:35:33.651Z,20988.00
2023-04-26T09:36:33.674Z,20694.00
2023-04-26T09:37:34.480Z,21411.00
2023-04-26T09:38:33.641Z,21358.00
2023-04-26T09:39:33.646Z,19130.00
2023-04-26T09:40:33.595Z,17560.00
2023-04-26T09:41:33.583Z,16198.00
2023-04-26T09:42:33.602Z,15763.00
2023-04-26T09:43:35.823Z,17476.00
2023-04-26T09:44:33.681Z,18375.00
2023-04-26T09:45:33.555Z,19485.00
2023-04-26T09:46:33.745Z,20522.00
2023-04-26T09:47:33.795Z,20522.00
2023-04-26T09:48:33.586Z,20232.00
2023-04-26T09:49:33.643Z,21146.00
2023-04-26T09:50:33.775Z,21987.00
2023-04-26T09:51:33.807Z,22758.00
2023-04-26T09:52:33.740Z,15544.00
2023-04-26T09:53:33.737Z,13263.00
2023-04-26T09:54:33.907Z,16452.00
2023-04-26T09:55:35.698Z,17028.00
2023-04-26T09:56:33.960Z,17358.00
2023-04-26T09:57:33.666Z,20723.00
2023-04-26T09:58:33.987Z,22220.00
2023-04-26T09:59:33.983Z,22530.00
2023-04-26T10:00:33.612Z,21858.00
2023-04-26T10:01:34.162Z,18355.00
2023-04-26T10:02:33.648Z,13802.00
2023-04-26T10:03:34.148Z,14028.00
2023-04-26T10:04:33.927Z,14047.00
2023-04-26T10:05:34.134Z,13345.00
2023-04-26T10:06:33.479Z,12758.00
2023-04-26T10:07:33.946Z,12608.00
2023-04-26T10:08:33.440Z,13455.00
2023-04-26T10:09:34.007Z,13943.00
2023-04-26T10:10:33.379Z,14564.00
2023-04-26T10:11:33.602Z,14129.00
2023-04-26T10:12:33.984Z,11653.00
2023-04-26T10:13:33.546Z,10096.00
2023-04-26T10:14:34.113Z,9807.00
2023-04-26T10:15:33.483Z,9741.00
2023-04-26T10:16:33.350Z,9744.00
2023-04-26T10:17:33.423Z,9335.00
2023-04-26T10:18:33.422Z,9255.00
2023-04-26T10:19:33.351Z,11153.00
2023-04-26T10:20:33.365Z,14173.00
2023-04-26T10:21:33.329Z,14627.00
2023-04-26T10:22:33.497Z,13960.00
2023-04-26T10:23:33.563Z,13677.00
2023-04-26T10:24:33.636Z,14722.00
2023-04-26T10:25:33.536Z,15679.00
2023-04-26T10:26:33.540Z,17238.00
2023-04-26T10:27:33.799Z,18641.00
2023-04-26T10:28:33.772Z,19391.00
2023-04-26T10:29:33.240Z,19652.00
2023-04-26T10:30:33.265Z,22496.00
2023-04-26T10:31:33.313Z,25180.00
2023-04-26T10:32:33.280Z,26621.00
2023-04-26T10:33:33.301Z,26432.00
2023-04-26T10:34:33.328Z,27377.00
2023-04-26T10:35:33.205Z,27584.00
2023-04-26T10:36:33.216Z,27378.00
2023-04-26T10:37:33.200Z,26085.00
2023-04-26T10:38:33.216Z,24950.00
2023-04-26T10:39:33.184Z,23933.00
2023-04-26T10:40:33.244Z,23657.00
2023-04-26T10:41:33.272Z,23700.00
2023-04-26T10:42:33.282Z,25264.00
2023-04-26T10:43:33.296Z,26630.00
2023-04-26T10:44:33.184Z,27427.00
2023-04-26T10:45:33.330Z,29506.00
2023-04-26T10:46:33.213Z,30558.00
2023-04-26T10:47:33.226Z,38725.00
2023-04-26T10:48:33.254Z,35423.00
2023-04-26T10:49:33.334Z,37688.00
2023-04-26T10:50:33.379Z,29793.00
2023-04-26T10:51:33.446Z,31202.00
2023-04-26T10:52:33.434Z,31893.00
2023-04-26T10:53:33.105Z,30234.00
2023-04-26T10:54:33.442Z,27353.00
2023-04-26T10:55:33.305Z,31051.00
2023-04-26T10:56:33.471Z,28122.00
2023-04-26T10:57:33.160Z,27518.00
2023-04-26T10:58:33.511Z,21638.00
2023-04-26T10:59:43.251Z,19891.00
2023-04-26T11:00:33.319Z,19443.00
2023-04-26T11:01:33.218Z,18697.00
2023-04-26T11:02:33.356Z,17501.00
2023-04-26T11:03:33.367Z,18637.00
2023-04-26T11:04:33.616Z,20395.00
2023-04-26T11:05:33.030Z,21464.00
2023-04-26T11:06:33.002Z,23290.00
2023-04-26T11:07:33.015Z,26249.00
2023-04-26T11:08:33.002Z,25820.00
2023-04-26T11:09:33.717Z,23062.00
2023-04-26T11:10:35.692Z,24665.00
2023-04-26T11:11:33.655Z,25235.00
2023-04-26T11:12:33.036Z,23795.00
2023-04-26T11:13:33.043Z,21490.00
2023-04-26T11:14:32.964Z,21746.00
2023-04-26T11:15:33.148Z,22595.00
2023-04-26T11:16:33.090Z,22360.00
2023-04-26T11:17:33.109Z,23516.00
2023-04-26T11:18:32.985Z,21677.00
2023-04-26T11:19:32.974Z,27231.00
2023-04-26T11:20:32.972Z,23576.00
2023-04-26T11:21:33.070Z,18422.00
2023-04-26T11:22:32.981Z,41338.00
2023-04-26T11:23:33.219Z,25211.00
2023-04-26T11:24:33.306Z,32031.00
2023-04-26T11:25:32.987Z,26594.00
2023-04-26T11:26:32.885Z,25291.00
2023-04-26T11:27:34.309Z,23038.00
2023-04-26T11:28:34.339Z,19716.00
2023-04-26T11:29:32.939Z,21772.00
2023-04-26T11:30:33.242Z,24854.00
2023-04-26T11:31:32.863Z,27279.00
2023-04-26T11:32:32.854Z,26881.00
2023-04-26T11:33:32.828Z,26105.00
2023-04-26T11:34:32.884Z,25605.00
2023-04-26T11:35:32.896Z,25479.00
2023-04-26T11:36:33.458Z,24604.00
2023-04-26T11:37:32.814Z,23876.00
2023-04-26T11:38:33.002Z,23136.00
2023-04-26T11:40:59.198Z,0.00
2023-04-26T11:41:59.171Z,20406.00
2023-04-26T11:42:59.186Z,19923.00
2023-04-26T11:43:59.275Z,19539.00
2023-04-26T11:44:59.222Z,20444.00
2023-04-26T11:45:58.694Z,21316.00
2023-04-26T11:46:58.737Z,19728.00
2023-04-26T11:47:58.855Z,17733.00
2023-04-26T11:48:58.678Z,16817.00
2023-04-26T11:49:58.680Z,16659.00
2023-04-26T11:50:58.682Z,16198.00
2023-04-26T11:51:58.686Z,15062.00
2023-04-26T11:52:58.742Z,13088.00
2023-04-26T11:53:58.772Z,12374.00
2023-04-26T11:54:58.817Z,12184.00
2023-04-26T11:55:58.869Z,12078.00
2023-04-26T11:56:58.919Z,12267.00
2023-04-26T11:57:58.848Z,12012.00
2023-04-26T11:58:58.684Z,12852.00
2023-04-26T11:59:58.707Z,14375.00
2023-04-26T12:00:58.617Z,15981.00
2023-04-26T12:01:58.639Z,18730.00
2023-04-26T12:02:58.886Z,21004.00
2023-04-26T12:03:58.737Z,24373.00
2023-04-26T12:04:58.761Z,25578.00
2023-04-26T12:05:59.120Z,34165.00
2023-04-26T12:06:59.252Z,26404.00
2023-04-26T12:07:59.462Z,25549.00
2023-04-26T12:08:59.373Z,22442.00
2023-04-26T12:10:00.673Z,22711.00
2023-04-26T12:10:59.127Z,23370.00
2023-04-26T12:11:59.330Z,25355.00
2023-04-26T12:12:59.500Z,27424.00
2023-04-26T12:13:58.574Z,25625.00
2023-04-26T12:14:58.501Z,15246.00
2023-04-26T12:15:58.544Z,133349.00
2023-04-26T12:16:58.643Z,52408.00
2023-04-26T12:17:58.687Z,37259.00
2023-04-26T12:18:58.703Z,44453.00
2023-04-26T12:19:58.762Z,45900.00
2023-04-26T12:20:58.809Z,32351.00
2023-04-26T12:21:58.763Z,32341.00
2023-04-26T12:22:58.928Z,29216.00
2023-04-26T12:23:58.991Z,28363.00